Time;durP1;ratioP1;P1;durP2;ratioP2;P2;SDS_P1;SDS_P2;PMS_P1;PMS_P2;Temp;Humidity;BMP_temperature;BMP_pressure;BME280_temperature;BME280_humidity;BME280_pressure;Samples;Min_cycle;Max_cycle;Signal;HPM_P1;HPM_P2
2023/11/03 00:02:12;;;;;;;3.08;2.13;;;;;;;;;;5018583;28;20029;-64
2023/11/03 00:04:38;;;;;;;2.10;2.00;;;;;;;;;;5035737;28;20029;-65
2023/11/03 00:07:04;;;;;;;2.45;2.25;;;;;;;;;;5036048;28;20029;-64
2023/11/03 00:09:38;;;;;;;3.03;2.30;;;;;;;;;;5036124;28;20030;-60
2023/11/03 00:12:06;;;;;;;2.30;2.10;;;;;;;;;;5036094;28;20032;-60
2023/11/03 00:14:31;;;;;;;2.60;2.00;;;;;;;;;;5018276;28;20040;-64
2023/11/03 00:16:57;;;;;;;2.00;1.90;;;;;;;;;;5002147;28;20369;-65
2023/11/03 00:19:26;;;;;;;2.40;2.20;;;;;;;;;;5035679;28;20060;-65
2023/11/03 00:21:52;;;;;;;2.13;2.03;;;;;;;;;;5036093;28;20393;-65
2023/11/03 00:24:17;;;;;;;3.17;2.83;;;;;;;;;;5035825;28;20038;-65
2023/11/03 00:26:43;;;;;;;3.53;2.65;;;;;;;;;;5018434;28;20476;-64
2023/11/03 00:29:09;;;;;;;3.40;2.70;;;;;;;;;;5035333;28;20024;-65
2023/11/03 00:31:34;;;;;;;2.53;2.33;;;;;;;;;;5035305;28;20041;-65
2023/11/03 00:33:59;;;;;;;3.38;2.13;;;;;;;;;;5018084;28;20428;-65
2023/11/03 00:36:25;;;;;;;2.38;2.17;;;;;;;;;;5034995;28;20124;-65
2023/11/03 00:38:50;;;;;;;2.67;2.45;;;;;;;;;;5017365;28;20116;-64
2023/11/03 00:41:16;;;;;;;2.30;2.10;;;;;;;;;;5035399;28;20060;-60
2023/11/03 00:43:42;;;;;;;2.72;2.20;;;;;;;;;;5001595;28;20021;-61
2023/11/03 00:46:08;;;;;;;2.60;2.40;;;;;;;;;;5035031;28;20046;-60
2023/11/03 00:48:33;;;;;;;2.47;2.00;;;;;;;;;;5035085;28;20025;-61
2023/11/03 00:50:58;;;;;;;2.95;1.83;;;;;;;;;;5035104;28;20030;-62
2023/11/03 00:53:24;;;;;;;4.05;1.90;;;;;;;;;;5017173;28;20064;-66
2023/11/03 00:55:49;;;;;;;4.03;2.25;;;;;;;;;;5034820;28;20017;-66
2023/11/03 00:58:15;;;;;;;2.50;2.00;;;;;;;;;;5034686;28;20021;-61
2023/11/03 01:00:41;;;;;;;2.13;2.00;;;;;;;;;;5034956;28;20072;-63
2023/11/03 01:03:08;;;;;;;2.55;1.98;;;;;;;;;;5035020;28;20457;-63
2023/11/03 01:05:33;;;;;;;2.60;1.70;;;;;;;;;;5035124;28;20077;-64
2023/11/03 01:07:59;;;;;;;2.33;2.20;;;;;;;;;;5034392;28;20029;-63
2023/11/03 01:10:24;;;;;;;3.25;2.22;;;;;;;;;;5017196;28;20042;-63
2023/11/03 01:12:50;;;;;;;4.13;2.17;;;;;;;;;;5016758;28;20026;-63
2023/11/03 01:15:19;;;;;;;2.20;2.00;;;;;;;;;;5033920;28;20109;-59
2023/11/03 01:17:44;;;;;;;3.92;2.35;;;;;;;;;;5017161;28;20132;-59
2023/11/03 01:20:19;;;;;;;2.38;2.17;;;;;;;;;;5034186;28;20112;-59
2023/11/03 01:22:48;;;;;;;3.10;2.40;;;;;;;;;;5050674;28;20037;-60
2023/11/03 01:25:15;;;;;;;2.75;2.25;;;;;;;;;;5017294;28;20040;-60
2023/11/03 01:27:42;;;;;;;2.67;2.33;;;;;;;;;;5034622;28;20137;-60
2023/11/03 01:30:09;;;;;;;3.58;2.47;;;;;;;;;;5034458;28;20045;-61
2023/11/03 01:32:35;;;;;;;2.45;2.25;;;;;;;;;;5034672;28;20026;-61
2023/11/03 01:35:01;;;;;;;2.67;2.42;;;;;;;;;;5017020;28;20355;-61
2023/11/03 01:37:26;;;;;;;3.00;2.60;;;;;;;;;;5034209;28;20152;-60
2023/11/03 01:39:52;;;;;;;2.72;2.50;;;;;;;;;;5034553;28;20092;-61
2023/11/03 01:42:17;;;;;;;2.60;2.40;;;;;;;;;;5000147;28;20033;-63
2023/11/03 01:44:44;;;;;;;2.67;2.17;;;;;;;;;;5016328;28;20401;-64
2023/11/03 01:47:09;;;;;;;3.47;2.30;;;;;;;;;;5016485;28;20041;-60
2023/11/03 01:49:52;;;;;;;2.47;2.28;;;;;;;;;;5016266;28;20042;-61
2023/11/03 01:52:17;;;;;;;2.60;2.40;;;;;;;;;;5034031;28;20025;-61
2023/11/03 01:54:44;;;;;;;3.92;2.42;;;;;;;;;;5034088;28;20455;-60
2023/11/03 01:57:09;;;;;;;4.38;2.55;;;;;;;;;;5033709;28;20025;-61
2023/11/03 01:59:34;;;;;;;3.25;2.45;;;;;;;;;;5016513;28;20013;-60
2023/11/03 02:02:00;;;;;;;2.50;2.30;;;;;;;;;;5016006;28;20033;-61
2023/11/03 02:04:26;;;;;;;2.63;2.45;;;;;;;;;;5016108;28;20072;-58
2023/11/03 02:06:51;;;;;;;2.78;2.58;;;;;;;;;;5033984;28;20030;-60
2023/11/03 02:09:17;;;;;;;3.20;2.50;;;;;;;;;;5016718;28;20029;-60
2023/11/03 02:11:43;;;;;;;3.20;2.90;;;;;;;;;;5015894;28;20029;-60
2023/11/03 02:14:09;;;;;;;2.42;2.22;;;;;;;;;;5016028;28;20056;-60
2023/11/03 02:16:35;;;;;;;2.58;2.20;;;;;;;;;;5033880;28;20060;-60
2023/11/03 02:19:03;;;;;;;3.78;2.50;;;;;;;;;;5016111;28;20034;-62
2023/11/03 02:21:29;;;;;;;2.97;2.60;;;;;;;;;;5033679;28;20025;-58
2023/11/03 02:23:54;;;;;;;2.67;2.20;;;;;;;;;;5033291;28;20370;-63
2023/11/03 02:26:20;;;;;;;2.50;2.30;;;;;;;;;;5015732;28;20386;-65
2023/11/03 02:28:46;;;;;;;3.10;2.65;;;;;;;;;;5037369;28;20115;-58
2023/11/03 02:31:11;;;;;;;2.30;2.15;;;;;;;;;;5020191;28;20040;-59
2023/11/03 02:33:37;;;;;;;3.47;2.35;;;;;;;;;;5037572;28;20033;-58
2023/11/03 02:36:03;;;;;;;3.17;2.35;;;;;;;;;;5003686;28;20405;-59
2023/11/03 02:38:29;;;;;;;2.42;2.10;;;;;;;;;;5020091;28;20059;-58
2023/11/03 02:40:55;;;;;;;3.22;2.25;;;;;;;;;;5037735;28;20370;-58
2023/11/03 02:43:21;;;;;;;2.60;2.33;;;;;;;;;;5037515;28;20053;-59
2023/11/03 02:45:46;;;;;;;2.40;2.20;;;;;;;;;;5019371;28;20558;-59
2023/11/03 02:48:12;;;;;;;3.38;2.20;;;;;;;;;;5019561;28;20091;-59
2023/11/03 02:50:37;;;;;;;2.42;2.22;;;;;;;;;;5037077;28;20491;-59
2023/11/03 02:53:02;;;;;;;2.75;2.55;;;;;;;;;;5019813;28;20445;-59
2023/11/03 02:55:28;;;;;;;2.67;2.30;;;;;;;;;;5037714;28;20088;-60
2023/11/03 02:57:53;;;;;;;2.50;2.30;;;;;;;;;;5037161;28;20034;-63
2023/11/03 03:00:19;;;;;;;2.92;2.22;;;;;;;;;;5019248;28;20033;-64
2023/11/03 03:02:44;;;;;;;2.50;2.30;;;;;;;;;;5037057;28;20092;-64
2023/11/03 03:05:10;;;;;;;3.55;2.40;;;;;;;;;;5002340;28;20037;-64
2023/11/03 03:07:37;;;;;;;2.67;2.47;;;;;;;;;;5036785;28;20033;-60
2023/11/03 03:10:03;;;;;;;3.85;2.75;;;;;;;;;;5002607;28;20032;-64
2023/11/03 03:12:28;;;;;;;2.75;2.55;;;;;;;;;;5018751;28;20366;-64
2023/11/03 03:14:53;;;;;;;3.42;2.60;;;;;;;;;;5037048;28;20116;-64
2023/11/03 03:17:19;;;;;;;2.40;2.20;;;;;;;;;;5036885;28;20022;-59
2023/11/03 03:19:45;;;;;;;2.33;2.15;;;;;;;;;;5036936;28;20033;-59
2023/11/03 03:22:10;;;;;;;2.30;2.10;;;;;;;;;;5036705;28;20028;-62
2023/11/03 03:24:36;;;;;;;2.50;2.30;;;;;;;;;;5018681;28;20021;-63
2023/11/03 03:27:03;;;;;;;3.58;2.63;;;;;;;;;;5018802;28;20477;-59
2023/11/03 03:29:28;;;;;;;2.85;2.15;;;;;;;;;;5036681;28;20035;-64
2023/11/03 03:31:54;;;;;;;2.60;2.40;;;;;;;;;;5036442;28;20156;-59
2023/11/03 03:34:19;;;;;;;2.50;2.03;;;;;;;;;;5036356;28;20053;-59
2023/11/03 03:36:45;;;;;;;1.88;1.77;;;;;;;;;;5036524;28;20583;-59
2023/11/03 03:39:10;;;;;;;2.20;2.00;;;;;;;;;;5036040;28;20473;-63
2023/11/03 03:41:35;;;;;;;2.47;2.28;;;;;;;;;;5036746;28;20029;-63
2023/11/03 03:44:01;;;;;;;2.40;2.22;;;;;;;;;;5036125;28;20029;-58
2023/11/03 03:46:26;;;;;;;2.78;2.35;;;;;;;;;;5036022;28;20046;-59
2023/11/03 03:48:52;;;;;;;2.42;2.00;;;;;;;;;;5018640;28;20112;-59
2023/11/03 03:51:18;;;;;;;2.55;2.15;;;;;;;;;;5036510;28;20119;-59
2023/11/03 03:53:43;;;;;;;2.25;2.03;;;;;;;;;;5036214;28;20056;-59
2023/11/03 03:56:08;;;;;;;2.45;2.20;;;;;;;;;;5036254;28;20045;-63
2023/11/03 03:58:37;;;;;;;4.00;2.10;;;;;;;;;;5036278;28;20037;-58
2023/11/03 04:01:02;;;;;;;2.60;2.40;;;;;;;;;;5036353;28;20351;-63
2023/11/03 04:03:28;;;;;;;5.57;2.60;;;;;;;;;;5018409;28;20035;-58
2023/11/03 04:05:53;;;;;;;2.63;2.25;;;;;;;;;;5018161;28;20465;-59
2023/11/03 04:08:19;;;;;;;2.30;2.10;;;;;;;;;;5036252;28;20039;-58
2023/11/03 04:10:44;;;;;;;3.28;2.60;;;;;;;;;;5036131;28;20025;-58
2023/11/03 04:13:10;;;;;;;2.40;2.13;;;;;;;;;;5035889;28;20028;-63
2023/11/03 04:15:35;;;;;;;3.50;2.33;;;;;;;;;;5018045;28;20026;-64
2023/11/03 04:18:00;;;;;;;4.13;2.80;;;;;;;;;;5035927;28;20021;-64
2023/11/03 04:20:26;;;;;;;2.60;2.40;;;;;;;;;;5035949;28;20473;-67
2023/11/03 04:22:51;;;;;;;3.20;2.42;;;;;;;;;;5035998;28;20094;-67
2023/11/03 04:25:17;;;;;;;5.93;2.30;;;;;;;;;;5035944;28;20033;-66
2023/11/03 04:27:42;;;;;;;2.35;2.08;;;;;;;;;;5036000;28;20184;-66
2023/11/03 04:30:08;;;;;;;2.70;2.25;;;;;;;;;;5017453;28;20034;-66
2023/11/03 04:32:34;;;;;;;3.22;2.13;;;;;;;;;;5035520;28;20454;-64
2023/11/03 04:35:00;;;;;;;4.15;2.55;;;;;;;;;;5034828;28;20017;-64
2023/11/03 04:37:25;;;;;;;3.88;2.47;;;;;;;;;;5017301;28;20033;-64
2023/11/03 04:39:51;;;;;;;2.10;1.95;;;;;;;;;;5034480;28;20055;-65
2023/11/03 04:42:16;;;;;;;2.20;1.65;;;;;;;;;;5031825;28;20542;-65
2023/11/03 04:44:41;;;;;;;4.70;1.48;;;;;;;;;;5031888;28;20037;-64
2023/11/03 04:47:07;;;;;;;1.90;1.70;;;;;;;;;;5032490;28;20043;-65
2023/11/03 04:49:33;;;;;;;2.17;1.55;;;;;;;;;;5032434;28;20033;-64
2023/11/03 04:51:58;;;;;;;1.65;1.52;;;;;;;;;;5031669;28;20057;-63
2023/11/03 04:54:23;;;;;;;2.53;1.63;;;;;;;;;;5032699;28;20471;-63
2023/11/03 04:56:49;;;;;;;1.83;1.60;;;;;;;;;;5032620;28;20568;-63
2023/11/03 04:59:14;;;;;;;1.60;1.50;;;;;;;;;;5033077;28;20067;-65
2023/11/03 05:01:40;;;;;;;1.67;1.30;;;;;;;;;;5015526;28;20108;-63
2023/11/03 05:04:06;;;;;;;1.88;1.77;;;;;;;;;;5015435;28;20179;-64
2023/11/03 05:06:32;;;;;;;2.38;1.40;;;;;;;;;;5033856;28;20053;-64
2023/11/03 05:08:57;;;;;;;2.00;1.75;;;;;;;;;;5034078;28;20076;-64
2023/11/03 05:11:23;;;;;;;1.80;1.70;;;;;;;;;;5033673;28;20068;-63
2023/11/03 05:13:48;;;;;;;1.80;1.40;;;;;;;;;;5034002;28;20017;-64
2023/11/03 05:16:13;;;;;;;1.45;1.35;;;;;;;;;;5034344;28;20484;-66
2023/11/03 05:18:40;;;;;;;1.70;1.48;;;;;;;;;;5033844;28;20029;-66
2023/11/03 05:21:05;;;;;;;2.28;1.80;;;;;;;;;;5033331;28;20041;-66
2023/11/03 05:23:31;;;;;;;3.03;1.58;;;;;;;;;;5033792;28;20108;-66
2023/11/03 05:25:56;;;;;;;1.92;1.48;;;;;;;;;;5033655;28;20117;-66
2023/11/03 05:28:22;;;;;;;2.00;1.42;;;;;;;;;;5033906;28;20061;-65
2023/11/03 05:30:47;;;;;;;2.22;1.20;;;;;;;;;;5033635;28;20033;-65
2023/11/03 05:33:14;;;;;;;1.40;1.30;;;;;;;;;;5033840;28;20021;-65
2023/11/03 05:35:40;;;;;;;1.60;1.50;;;;;;;;;;5033625;28;20025;-66
2023/11/03 05:38:06;;;;;;;1.60;1.50;;;;;;;;;;5016011;28;20485;-65
2023/11/03 05:40:31;;;;;;;1.50;1.40;;;;;;;;;;5033607;28;20036;-65
2023/11/03 05:42:56;;;;;;;1.42;1.33;;;;;;;;;;5033945;28;20033;-65
2023/11/03 05:45:22;;;;;;;1.40;1.30;;;;;;;;;;5033472;28;20558;-64
2023/11/03 05:47:47;;;;;;;2.38;1.80;;;;;;;;;;5033591;28;20029;-64
2023/11/03 05:50:12;;;;;;;1.30;1.20;;;;;;;;;;5015669;28;20036;-64
2023/11/03 05:52:38;;;;;;;2.08;1.63;;;;;;;;;;5033090;28;20140;-64
2023/11/03 05:55:04;;;;;;;1.70;1.60;;;;;;;;;;5033506;28;20488;-64
2023/11/03 05:57:30;;;;;;;1.55;1.45;;;;;;;;;;4999092;28;20473;-64
2023/11/03 05:59:55;;;;;;;2.35;1.30;;;;;;;;;;5033544;28;20051;-64
2023/11/03 06:02:21;;;;;;;1.95;1.40;;;;;;;;;;5034200;28;20037;-64
2023/11/03 06:04:49;;;;;;;2.45;1.63;;;;;;;;;;5033605;28;20053;-64
2023/11/03 06:07:15;;;;;;;1.85;1.40;;;;;;;;;;5033662;28;20038;-64
2023/11/03 06:09:41;;;;;;;2.47;1.60;;;;;;;;;;5033530;28;20033;-64
2023/11/03 06:12:07;;;;;;;1.63;1.30;;;;;;;;;;5034122;28;20028;-64
2023/11/03 06:14:33;;;;;;;3.47;1.50;;;;;;;;;;5034115;28;20457;-64
2023/11/03 06:16:58;;;;;;;1.88;1.60;;;;;;;;;;5034023;28;20035;-64
2023/11/03 06:19:24;;;;;;;3.50;2.00;;;;;;;;;;5033782;28;20263;-64
2023/11/03 06:21:49;;;;;;;2.03;1.50;;;;;;;;;;5015829;28;20112;-64
2023/11/03 06:24:15;;;;;;;2.30;2.10;;;;;;;;;;5033198;28;20066;-64
2023/11/03 06:26:40;;;;;;;1.60;1.50;;;;;;;;;;5033717;28;20041;-65
2023/11/03 06:29:05;;;;;;;1.58;1.48;;;;;;;;;;5033881;28;20018;-65
2023/11/03 06:31:33;;;;;;;2.35;1.52;;;;;;;;;;5033409;28;20445;-65
2023/11/03 06:33:59;;;;;;;1.50;1.40;;;;;;;;;;5033565;28;20072;-64
2023/11/03 06:36:24;;;;;;;2.45;2.10;;;;;;;;;;5033304;28;20030;-64
2023/11/03 06:38:50;;;;;;;4.35;2.72;;;;;;;;;;5032951;28;20026;-64
2023/11/03 06:41:15;;;;;;;8.02;2.20;;;;;;;;;;5031501;28;20559;-64
2023/11/03 06:43:42;;;;;;;3.97;2.45;;;;;;;;;;5013683;28;20029;-64
2023/11/03 06:46:11;;;;;;;3.30;2.30;;;;;;;;;;5031412;28;20041;-64
2023/11/03 06:48:37;;;;;;;1.92;1.83;;;;;;;;;;5031285;28;20026;-64
2023/11/03 06:51:08;;;;;;;2.08;1.98;;;;;;;;;;5013667;28;20474;-64
2023/11/03 06:53:33;;;;;;;1.88;1.77;;;;;;;;;;5031812;28;20033;-64
2023/11/03 06:55:59;;;;;;;2.13;1.60;;;;;;;;;;5031871;28;20381;-64
2023/11/03 06:58:24;;;;;;;3.78;2.00;;;;;;;;;;5031862;28;20396;-64
2023/11/03 07:00:50;;;;;;;4.30;1.75;;;;;;;;;;5032986;28;20033;-64
2023/11/03 07:03:15;;;;;;;1.92;1.60;;;;;;;;;;5015362;28;20043;-64
2023/11/03 07:05:42;;;;;;;3.60;3.30;;;;;;;;;;5016005;28;20033;-61
2023/11/03 07:08:07;;;;;;;2.15;1.92;;;;;;;;;;5033637;28;20489;-60
2023/11/03 07:10:33;;;;;;;2.80;1.55;;;;;;;;;;5015371;28;20021;-61
2023/11/03 07:13:01;;;;;;;3.40;1.60;;;;;;;;;;5033768;28;20378;-61
2023/11/03 07:15:27;;;;;;;2.92;2.40;;;;;;;;;;5036894;28;20584;-61
2023/11/03 07:17:54;;;;;;;3.40;2.00;;;;;;;;;;5036622;28;20112;-60
2023/11/03 07:20:22;;;;;;;1.83;1.73;;;;;;;;;;5036604;28;20044;-60
2023/11/03 07:22:49;;;;;;;1.83;1.17;;;;;;;;;;5019133;28;20025;-60
2023/11/03 07:25:14;;;;;;;2.45;1.90;;;;;;;;;;5036458;28;20042;-60
2023/11/03 07:27:40;;;;;;;1.92;1.80;;;;;;;;;;5018656;28;20033;-61
2023/11/03 07:30:06;;;;;;;2.28;1.90;;;;;;;;;;5036260;28;20381;-61
2023/11/03 07:32:32;;;;;;;3.22;1.75;;;;;;;;;;5036860;28;20025;-61
2023/11/03 07:34:57;;;;;;;1.77;1.52;;;;;;;;;;5036492;28;20083;-61
2023/11/03 07:37:23;;;;;;;3.63;1.85;;;;;;;;;;5036280;28;20029;-61
2023/11/03 07:39:50;;;;;;;2.00;1.67;;;;;;;;;;5036173;28;20056;-60
2023/11/03 07:42:15;;;;;;;2.13;1.45;;;;;;;;;;5036150;28;20030;-61
2023/11/03 07:44:42;;;;;;;1.50;1.40;;;;;;;;;;5035999;28;20473;-61
2023/11/03 07:47:08;;;;;;;2.75;1.55;;;;;;;;;;5036063;28;20489;-60
2023/11/03 07:49:34;;;;;;;2.85;2.08;;;;;;;;;;5035947;28;20030;-61
2023/11/03 07:51:59;;;;;;;2.33;2.03;;;;;;;;;;5036236;28;20036;-61
2023/11/03 07:54:24;;;;;;;4.13;3.15;;;;;;;;;;5035955;28;20071;-60
2023/11/03 07:56:50;;;;;;;19.83;9.63;;;;;;;;;;5018546;28;20038;-60
2023/11/03 07:59:15;;;;;;;17.73;8.60;;;;;;;;;;5036131;28;20116;-60
2023/11/03 08:01:41;;;;;;;4.00;2.70;;;;;;;;;;5035839;28;20026;-60
2023/11/03 08:04:07;;;;;;;2.80;1.95;;;;;;;;;;5035810;28;20392;-60
2023/11/03 08:06:32;;;;;;;10.80;5.50;;;;;;;;;;5035704;28;20037;-60
2023/11/03 08:08:57;;;;;;;13.80;9.10;;;;;;;;;;5035872;28;20024;-61
2023/11/03 08:11:23;;;;;;;8.13;4.72;;;;;;;;;;5035926;28;20056;-61
2023/11/03 08:13:48;;;;;;;12.25;5.03;;;;;;;;;;5018130;28;20037;-60
2023/11/03 08:16:13;;;;;;;6.38;3.80;;;;;;;;;;5017790;28;20022;-60
2023/11/03 08:18:39;;;;;;;5.95;3.67;;;;;;;;;;5035500;28;20432;-60
2023/11/03 08:21:05;;;;;;;7.13;4.07;;;;;;;;;;5018080;28;20108;-60
2023/11/03 08:23:32;;;;;;;2.40;2.17;;;;;;;;;;5017697;28;20420;-60
2023/11/03 08:25:57;;;;;;;1.67;1.33;;;;;;;;;;5034626;28;20484;-60
2023/11/03 08:28:22;;;;;;;2.17;1.92;;;;;;;;;;5035328;28;20025;-61
2023/11/03 08:30:48;;;;;;;5.10;2.38;;;;;;;;;;5017465;28;20032;-60
2023/11/03 08:33:13;;;;;;;5.72;2.63;;;;;;;;;;5035491;28;20068;-60
2023/11/03 08:35:38;;;;;;;5.30;2.72;;;;;;;;;;5035462;28;20018;-60
2023/11/03 08:38:05;;;;;;;3.85;2.58;;;;;;;;;;5035397;28;20030;-60
2023/11/03 08:40:30;;;;;;;2.60;2.17;;;;;;;;;;5035642;28;20037;-60
2023/11/03 08:42:56;;;;;;;6.00;3.25;;;;;;;;;;5035272;28;20083;-60
2023/11/03 08:45:21;;;;;;;7.28;3.20;;;;;;;;;;5034844;28;20520;-60
2023/11/03 08:47:47;;;;;;;4.85;2.90;;;;;;;;;;5050331;28;20034;-60
2023/11/03 08:50:13;;;;;;;3.15;2.13;;;;;;;;;;5034822;28;20457;-61
2023/11/03 08:52:40;;;;;;;4.28;2.67;;;;;;;;;;5034826;28;20109;-60
2023/11/03 08:55:06;;;;;;;3.30;1.90;;;;;;;;;;5035075;28;20033;-61
2023/11/03 08:57:32;;;;;;;5.28;2.10;;;;;;;;;;5035303;28;20025;-60
2023/11/03 08:59:58;;;;;;;2.47;2.28;;;;;;;;;;5034802;28;20469;-61
2023/11/03 09:02:23;;;;;;;3.03;2.30;;;;;;;;;;5034921;28;20076;-61
2023/11/03 09:04:49;;;;;;;2.20;2.00;;;;;;;;;;5034623;28;20025;-61
2023/11/03 09:07:14;;;;;;;2.42;2.20;;;;;;;;;;5034587;28;20457;-61
2023/11/03 09:09:40;;;;;;;2.75;2.35;;;;;;;;;;5034447;28;20067;-61
2023/11/03 09:12:05;;;;;;;4.75;2.35;;;;;;;;;;5034438;28;20117;-61
2023/11/03 09:14:30;;;;;;;4.10;2.58;;;;;;;;;;5034456;28;20112;-60
2023/11/03 09:16:56;;;;;;;3.83;2.40;;;;;;;;;;5034767;28;20053;-61
2023/11/03 09:19:21;;;;;;;2.92;2.28;;;;;;;;;;5016607;28;20061;-60
2023/11/03 09:21:48;;;;;;;4.78;2.60;;;;;;;;;;5034247;28;20025;-61
2023/11/03 09:24:13;;;;;;;6.60;2.90;;;;;;;;;;5034272;28;20052;-61
2023/11/03 09:26:39;;;;;;;4.30;3.20;;;;;;;;;;5034468;28;20030;-61
2023/11/03 09:29:04;;;;;;;2.78;2.33;;;;;;;;;;5034464;28;20037;-61
2023/11/03 09:31:29;;;;;;;5.68;3.22;;;;;;;;;;5034211;28;20033;-61
2023/11/03 09:33:57;;;;;;;4.28;2.25;;;;;;;;;;5034047;28;20025;-60
2023/11/03 09:36:23;;;;;;;4.00;2.95;;;;;;;;;;5034004;28;20026;-61
2023/11/03 09:38:48;;;;;;;4.85;2.83;;;;;;;;;;5034237;28;20056;-61
2023/11/03 09:41:15;;;;;;;5.28;3.33;;;;;;;;;;5016386;28;20075;-61
2023/11/03 09:43:41;;;;;;;6.85;3.03;;;;;;;;;;5034190;28;20517;-61
2023/11/03 09:46:08;;;;;;;2.63;2.17;;;;;;;;;;4999791;28;20049;-61
2023/11/03 09:48:33;;;;;;;7.22;2.90;;;;;;;;;;5034162;28;20037;-61
2023/11/03 09:51:00;;;;;;;5.35;3.20;;;;;;;;;;5016023;28;20033;-61
2023/11/03 09:53:26;;;;;;;3.67;2.65;;;;;;;;;;5034062;28;20036;-61
2023/11/03 09:55:52;;;;;;;6.45;2.95;;;;;;;;;;5034049;28;20030;-61
2023/11/03 09:58:17;;;;;;;7.97;5.47;;;;;;;;;;5033983;28;20026;-61
2023/11/03 10:00:44;;;;;;;11.93;7.97;;;;;;;;;;5033718;28;20025;-60
2023/11/03 10:03:09;;;;;;;8.70;4.05;;;;;;;;;;5033663;28;20465;-61
2023/11/03 10:05:36;;;;;;;4.05;3.20;;;;;;;;;;5016429;28;20034;-61
2023/11/03 10:08:11;;;;;;;8.32;7.53;;;;;;;;;;5033609;28;20067;-61
2023/11/03 10:10:37;;;;;;;7.07;3.97;;;;;;;;;;5033708;28;20040;-60
2023/11/03 10:13:05;;;;;;;6.88;4.38;;;;;;;;;;5015725;28;20045;-61
2023/11/03 10:15:30;;;;;;;4.50;3.72;;;;;;;;;;5033794;28;20048;-60
2023/11/03 10:17:56;;;;;;;3.95;2.63;;;;;;;;;;4999604;28;20029;-61
2023/11/03 10:20:22;;;;;;;5.43;2.88;;;;;;;;;;5033786;28;20030;-61
2023/11/03 10:22:47;;;;;;;3.67;2.35;;;;;;;;;;5033485;28;20519;-61
2023/11/03 10:25:13;;;;;;;4.53;2.72;;;;;;;;;;5033478;28;20056;-61
2023/11/03 10:27:39;;;;;;;8.30;4.60;;;;;;;;;;5033433;28;20366;-61
2023/11/03 10:30:06;;;;;;;3.53;2.80;;;;;;;;;;5033328;28;20048;-61
2023/11/03 10:32:32;;;;;;;13.90;8.77;;;;;;;;;;5033950;28;20104;-61
2023/11/03 10:34:59;;;;;;;8.15;5.57;;;;;;;;;;5033666;28;20064;-61
2023/11/03 10:37:29;;;;;;;28.95;16.20;;;;;;;;;;5033343;28;20041;-61
2023/11/03 10:39:54;;;;;;;35.47;19.05;;;;;;;;;;5033606;28;20111;-61
2023/11/03 10:42:20;;;;;;;11.25;7.10;;;;;;;;;;5033848;28;20057;-60
2023/11/03 10:44:46;;;;;;;3.17;2.35;;;;;;;;;;5015307;28;20077;-61
2023/11/03 10:47:16;;;;;;;2.95;2.67;;;;;;;;;;5033559;28;20039;-61
2023/11/03 10:49:43;;;;;;;4.82;3.40;;;;;;;;;;5037110;28;20033;-61
2023/11/03 10:52:18;;;;;;;12.40;8.07;;;;;;;;;;5037132;28;20136;-61
2023/11/03 10:54:49;;;;;;;4.18;3.72;;;;;;;;;;5019974;28;20518;-61
2023/11/03 10:57:16;;;;;;;14.32;9.68;;;;;;;;;;5002959;28;20124;-61
2023/11/03 10:59:43;;;;;;;5.68;5.13;;;;;;;;;;5037012;28;20020;-61
2023/11/03 11:02:18;;;;;;;3.92;3.42;;;;;;;;;;5037486;28;20044;-61
2023/11/03 11:04:51;;;;;;;19.08;10.35;;;;;;;;;;5037335;28;20029;-62
2023/11/03 11:07:21;;;;;;;7.78;6.05;;;;;;;;;;5037096;28;20057;-61
2023/11/03 11:09:46;;;;;;;9.75;6.43;;;;;;;;;;5019395;28;20033;-61
2023/11/03 11:12:13;;;;;;;5.72;4.47;;;;;;;;;;5037284;28;20026;-61
2023/11/03 11:14:42;;;;;;;4.10;3.78;;;;;;;;;;5036931;28;20064;-61
2023/11/03 11:17:08;;;;;;;12.10;7.90;;;;;;;;;;5036922;28;20116;-60
2023/11/03 11:19:45;;;;;;;15.55;9.80;;;;;;;;;;5036891;28;20040;-61
2023/11/03 11:22:19;;;;;;;13.57;10.25;;;;;;;;;;5019223;28;20060;-60
2023/11/03 11:24:45;;;;;;;17.58;11.93;;;;;;;;;;5018801;28;20052;-60
2023/11/03 11:27:14;;;;;;;9.82;8.35;;;;;;;;;;5051888;28;20437;-60
2023/11/03 11:29:40;;;;;;;4.20;3.80;;;;;;;;;;5018589;28;20025;-60
2023/11/03 11:32:08;;;;;;;4.70;4.25;;;;;;;;;;5018733;28;20064;-61
2023/11/03 11:34:40;;;;;;;4.85;4.43;;;;;;;;;;5036621;28;20087;-60
2023/11/03 11:37:27;;;;;;;3.97;3.55;;;;;;;;;;5036550;28;20028;-60
2023/11/03 11:39:53;;;;;;;7.72;4.30;;;;;;;;;;5035948;28;20056;-60
2023/11/03 11:42:19;;;;;;;3.78;3.47;;;;;;;;;;5036483;28;20086;-60
2023/11/03 11:44:44;;;;;;;3.70;3.30;;;;;;;;;;5036245;28;20037;-61
2023/11/03 11:47:10;;;;;;;5.22;3.72;;;;;;;;;;5036396;28;20052;-60
2023/11/03 11:49:38;;;;;;;5.15;3.22;;;;;;;;;;5036147;28;20484;-61
2023/11/03 11:52:04;;;;;;;6.40;4.47;;;;;;;;;;5036328;28;20076;-60
2023/11/03 11:54:30;;;;;;;11.27;7.15;;;;;;;;;;5036275;28;20033;-60
2023/11/03 11:56:55;;;;;;;3.80;3.20;;;;;;;;;;5036504;28;20037;-60
2023/11/03 11:59:21;;;;;;;4.43;4.03;;;;;;;;;;5035618;28;20034;-61
2023/11/03 12:01:47;;;;;;;9.10;5.78;;;;;;;;;;5036112;28;20030;-60
2023/11/03 12:04:13;;;;;;;4.00;3.35;;;;;;;;;;5035827;28;20033;-61
2023/11/03 12:06:40;;;;;;;12.13;6.38;;;;;;;;;;5035737;28;20037;-60
2023/11/03 12:09:06;;;;;;;9.73;6.18;;;;;;;;;;5002483;28;20376;-60
2023/11/03 12:11:31;;;;;;;5.28;3.40;;;;;;;;;;5018447;28;20032;-60
2023/11/03 12:13:57;;;;;;;4.20;3.53;;;;;;;;;;5038930;23;20055;-63
2023/11/03 12:16:23;;;;;;;4.35;3.38;;;;;;;;;;4994333;23;20051;-60
2023/11/03 12:18:51;;;;;;;6.88;4.85;;;;;;;;;;5014711;23;20100;-63
2023/11/03 12:21:16;;;;;;;6.03;3.78;;;;;;;;;;5024845;23;20115;-63
2023/11/03 12:23:41;;;;;;;4.47;4.18;;;;;;;;;;4998114;28;20034;-60
2023/11/03 12:26:10;;;;;;;5.95;3.30;;;;;;;;;;5016139;28;20036;-61
2023/11/03 12:28:35;;;;;;;3.03;2.72;;;;;;;;;;4997969;28;20037;-61
2023/11/03 12:31:04;;;;;;;3.20;2.65;;;;;;;;;;5015424;28;20034;-61
2023/11/03 12:33:29;;;;;;;7.60;3.00;;;;;;;;;;5015346;28;20030;-61
2023/11/03 12:35:55;;;;;;;4.90;3.10;;;;;;;;;;5015369;28;20033;-60
2023/11/03 12:38:21;;;;;;;4.55;3.10;;;;;;;;;;5015649;28;20112;-60
2023/11/03 12:40:47;;;;;;;2.90;2.70;;;;;;;;;;5015303;28;20044;-61
2023/11/03 12:43:13;;;;;;;3.75;2.78;;;;;;;;;;5030568;28;20042;-61
2023/11/03 12:45:39;;;;;;;4.15;2.90;;;;;;;;;;5015205;28;20034;-61
2023/11/03 12:48:19;;;;;;;3.42;2.80;;;;;;;;;;5015457;28;20080;-60
2023/11/03 12:50:56;;;;;;;3.90;3.60;;;;;;;;;;5015087;28;20036;-60
2023/11/03 12:53:22;;;;;;;6.55;4.07;;;;;;;;;;4998191;28;20033;-61
2023/11/03 12:55:56;;;;;;;8.13;5.07;;;;;;;;;;5014914;28;20057;-62
2023/11/03 12:58:21;;;;;;;14.38;7.60;;;;;;;;;;4997547;28;20048;-61
2023/11/03 13:00:49;;;;;;;11.18;6.30;;;;;;;;;;4981206;28;20546;-61
2023/11/03 13:03:15;;;;;;;7.60;5.53;;;;;;;;;;5014894;28;20478;-60
2023/11/03 13:05:42;;;;;;;25.02;16.60;;;;;;;;;;4997232;28;20029;-61
2023/11/03 13:08:08;;;;;;;9.10;7.78;;;;;;;;;;5015076;28;20069;-60
2023/11/03 13:10:34;;;;;;;55.85;36.45;;;;;;;;;;5014345;28;20057;-60
2023/11/03 13:12:59;;;;;;;61.45;42.40;;;;;;;;;;5014717;28;20034;-60
2023/11/03 13:15:26;;;;;;;17.77;12.75;;;;;;;;;;5014960;28;20047;-60
2023/11/03 13:17:52;;;;;;;8.32;6.28;;;;;;;;;;5014630;28;20497;-60
2023/11/03 13:20:18;;;;;;;33.17;21.15;;;;;;;;;;5014731;28;20061;-60
2023/11/03 13:22:50;;;;;;;18.08;14.15;;;;;;;;;;5015133;28;20046;-60
2023/11/03 13:25:16;;;;;;;14.85;11.32;;;;;;;;;;5015088;28;20041;-60
2023/11/03 13:27:43;;;;;;;9.25;8.13;;;;;;;;;;5014728;28;20038;-60
2023/11/03 13:30:08;;;;;;;5.50;4.95;;;;;;;;;;5014619;28;20528;-60
2023/11/03 13:32:35;;;;;;;6.85;5.68;;;;;;;;;;5014915;28;20021;-60
2023/11/03 13:35:00;;;;;;;7.00;5.55;;;;;;;;;;5014406;28;20045;-60
2023/11/03 13:37:26;;;;;;;8.75;4.93;;;;;;;;;;5014659;28;20022;-61
2023/11/03 13:39:52;;;;;;;8.10;4.85;;;;;;;;;;5014315;28;20433;-60
2023/11/03 13:42:21;;;;;;;9.57;5.15;;;;;;;;;;5014717;28;20105;-60
2023/11/03 13:44:49;;;;;;;8.85;4.78;;;;;;;;;;4996608;28;20038;-60
2023/11/03 13:47:17;;;;;;;12.93;7.85;;;;;;;;;;5014706;28;20076;-60
2023/11/03 13:49:43;;;;;;;10.52;4.95;;;;;;;;;;5014098;28;20130;-61
2023/11/03 13:52:09;;;;;;;12.07;6.57;;;;;;;;;;4996864;28;20057;-61
2023/11/03 13:54:34;;;;;;;22.13;14.00;;;;;;;;;;5014324;28;20112;-60
2023/11/03 13:57:00;;;;;;;11.55;9.02;;;;;;;;;;5014033;28;20117;-61
2023/11/03 13:59:27;;;;;;;20.80;13.13;;;;;;;;;;5014564;28;20037;-61
2023/11/03 14:01:53;;;;;;;48.88;29.13;;;;;;;;;;5014235;28;20073;-60
2023/11/03 14:04:19;;;;;;;19.67;11.55;;;;;;;;;;5013969;28;20085;-60
2023/11/03 14:06:45;;;;;;;10.48;6.28;;;;;;;;;;5013906;28;20049;-61
2023/11/03 14:09:11;;;;;;;6.32;4.10;;;;;;;;;;4996267;28;20429;-60
2023/11/03 14:11:37;;;;;;;3.47;3.17;;;;;;;;;;5013857;28;20045;-61
2023/11/03 14:14:03;;;;;;;24.45;11.43;;;;;;;;;;5014101;28;20026;-60
2023/11/03 14:16:29;;;;;;;35.03;16.05;;;;;;;;;;5013831;28;20088;-60
2023/11/03 14:18:54;;;;;;;50.97;24.13;;;;;;;;;;5014048;28;20466;-61
2023/11/03 14:21:24;;;;;;;12.68;7.43;;;;;;;;;;5013784;28;20104;-60
2023/11/03 14:23:49;;;;;;;19.38;8.88;;;;;;;;;;5018088;28;20142;-61
2023/11/03 14:26:15;;;;;;;27.73;14.20;;;;;;;;;;5000269;28;20033;-61
2023/11/03 14:28:40;;;;;;;4.05;3.65;;;;;;;;;;5017824;28;20030;-60
2023/11/03 14:31:09;;;;;;;23.30;15.20;;;;;;;;;;5017982;28;20458;-61
2023/11/03 14:33:36;;;;;;;3.78;3.40;;;;;;;;;;5017684;28;20046;-61
2023/11/03 14:36:03;;;;;;;5.75;3.97;;;;;;;;;;5017891;28;20458;-61